Ely Airport Yelland Field
KELY : now visible

Airfield :











YOU CAN JOIN US ON...

 
LOGIN :

Register | Disclaimer

   EN    FR    IT 

 









Legend :    VFR   Marginal VFR   IFR   Intensive IFR   Very Intensive IFR
Visi :
Ceiling :
>= 8 km
>= 3000ft
5 to 8 km
1000 to 3000 ft
1500m to 5 km
500 to 1000 ft
800 to 1500m
200 to 500 ft
< 800m
< 200 ft
Symbols :   Thunderstorms  Fog  Heavy snow  Heavy precipitations  Wind > 20 kt






- Airport Elevation : 6259 ft


KELY - Ely Yelland Field

CURRENT METAR :
  • 070053Z AUTO 17015G22KT 10SM FEW070 BKN090 BKN120 07/00 A2989 RMK AO2 PK WND 17026/0007 SLP094 T00670000

EXPIRED METARs :
  • 062353Z AUTO 17016G23KT 10SM SCT090 08/00 A2987 RMK AO2 PK WND 18026/2316 SLP078 60001 T00830000 10094 20044 55005
  • 062253Z AUTO 19016G23KT 10SM FEW065 09/01 A2986 RMK AO2 SLP076 T00890006

TAF KELY
Valid from the 07 at 00:00 until the 08 at 00:00 UTC


062320Z 0700/0724 19011G23KT P6SM VCSH SCT020 BKN040
FM070800 19008KT 6SM -RASN OVC007
FM071200 19008KT 4SM -SN SCT006 BKN015
FM071800 16006KT P6SM VCSH SCT020 BKN040



MET'MAP, your aeronautical weather chart ! - Copyright ORBIFLY December 2007 - Disclaimer

ORBIFLY MET'MAP TEAM :

Programming & Development : Alexandra Zaïnal
Concept & original design : Baudouin d'Aumeries
Assistance for programming : Marc-Olivier Méhu
Technical & hardware support : Manuel Goepfert

Contact : metmap@orbifly.com




SOURCES & CREDITS :

   NOAA       Earth
Advisory